sensor_id;sensor_type;location;lat;lon;timestamp;P1;durP1;ratioP1;P2;durP2;ratioP2
59786;SDS011;45672;51.612;5.536;2023-02-23T00:01:39;77.85;;;40.67;;
59786;SDS011;45672;51.612;5.536;2023-02-23T00:04:06;70.30;;;39.28;;
59786;SDS011;45672;51.612;5.536;2023-02-23T00:06:32;76.93;;;39.97;;
59786;SDS011;45672;51.612;5.536;2023-02-23T00:09:00;80.25;;;41.50;;
59786;SDS011;45672;51.612;5.536;2023-02-23T00:11:26;78.00;;;39.30;;
59786;SDS011;45672;51.612;5.536;2023-02-23T00:13:52;71.88;;;39.08;;
59786;SDS011;45672;51.612;5.536;2023-02-23T00:16:21;78.05;;;40.08;;
59786;SDS011;45672;51.612;5.536;2023-02-23T00:21:21;76.13;;;39.00;;
59786;SDS011;45672;51.612;5.536;2023-02-23T00:23:49;75.20;;;40.92;;
59786;SDS011;45672;51.612;5.536;2023-02-23T00:26:20;77.50;;;40.83;;
59786;SDS011;45672;51.612;5.536;2023-02-23T00:28:51;81.00;;;41.88;;
59786;SDS011;45672;51.612;5.536;2023-02-23T00:31:18;81.97;;;42.05;;
59786;SDS011;45672;51.612;5.536;2023-02-23T00:33:49;87.25;;;43.10;;
59786;SDS011;45672;51.612;5.536;2023-02-23T00:36:17;87.55;;;41.97;;
59786;SDS011;45672;51.612;5.536;2023-02-23T00:38:43;91.25;;;43.03;;
59786;SDS011;45672;51.612;5.536;2023-02-23T00:41:10;91.82;;;43.17;;
59786;SDS011;45672;51.612;5.536;2023-02-23T00:43:38;95.60;;;44.55;;
59786;SDS011;45672;51.612;5.536;2023-02-23T00:46:14;100.32;;;45.13;;
59786;SDS011;45672;51.612;5.536;2023-02-23T00:48:41;92.95;;;43.65;;
59786;SDS011;45672;51.612;5.536;2023-02-23T00:51:07;99.57;;;46.40;;
59786;SDS011;45672;51.612;5.536;2023-02-23T00:53:33;97.63;;;44.38;;
59786;SDS011;45672;51.612;5.536;2023-02-23T00:55:58;101.47;;;44.92;;
59786;SDS011;45672;51.612;5.536;2023-02-23T00:58:24;98.93;;;44.55;;
59786;SDS011;45672;51.612;5.536;2023-02-23T01:00:50;93.15;;;44.10;;
59786;SDS011;45672;51.612;5.536;2023-02-23T01:03:16;89.93;;;41.65;;
59786;SDS011;45672;51.612;5.536;2023-02-23T01:05:41;84.00;;;41.60;;
59786;SDS011;45672;51.612;5.536;2023-02-23T01:08:08;88.80;;;40.08;;
59786;SDS011;45672;51.612;5.536;2023-02-23T01:10:41;87.22;;;41.65;;
59786;SDS011;45672;51.612;5.536;2023-02-23T01:13:08;81.53;;;40.83;;
59786;SDS011;45672;51.612;5.536;2023-02-23T01:15:39;85.50;;;41.88;;
59786;SDS011;45672;51.612;5.536;2023-02-23T01:18:08;84.63;;;41.08;;
59786;SDS011;45672;51.612;5.536;2023-02-23T01:20:37;86.82;;;41.90;;
59786;SDS011;45672;51.612;5.536;2023-02-23T01:23:05;86.35;;;41.50;;
59786;SDS011;45672;51.612;5.536;2023-02-23T01:25:31;89.93;;;42.17;;
59786;SDS011;45672;51.612;5.536;2023-02-23T01:27:57;86.65;;;40.63;;
59786;SDS011;45672;51.612;5.536;2023-02-23T01:30:22;89.05;;;41.50;;
59786;SDS011;45672;51.612;5.536;2023-02-23T01:32:48;82.07;;;40.42;;
59786;SDS011;45672;51.612;5.536;2023-02-23T01:35:13;81.10;;;40.30;;
59786;SDS011;45672;51.612;5.536;2023-02-23T01:37:39;83.45;;;39.72;;
59786;SDS011;45672;51.612;5.536;2023-02-23T01:40:11;83.63;;;40.65;;
59786;SDS011;45672;51.612;5.536;2023-02-23T01:48:07;88.30;;;40.25;;
59786;SDS011;45672;51.612;5.536;2023-02-23T01:53:16;82.72;;;38.30;;
59786;SDS011;45672;51.612;5.536;2023-02-23T01:55:45;78.47;;;39.03;;
59786;SDS011;45672;51.612;5.536;2023-02-23T01:58:21;80.07;;;38.33;;
59786;SDS011;45672;51.612;5.536;2023-02-23T02:00:49;78.95;;;37.08;;
59786;SDS011;45672;51.612;5.536;2023-02-23T02:03:21;79.78;;;38.95;;
59786;SDS011;45672;51.612;5.536;2023-02-23T02:05:51;81.18;;;39.38;;
59786;SDS011;45672;51.612;5.536;2023-02-23T02:08:18;86.85;;;39.80;;
59786;SDS011;45672;51.612;5.536;2023-02-23T02:10:44;80.72;;;38.05;;
59786;SDS011;45672;51.612;5.536;2023-02-23T02:13:16;84.18;;;40.30;;
59786;SDS011;45672;51.612;5.536;2023-02-23T02:16:27;87.10;;;39.47;;
59786;SDS011;45672;51.612;5.536;2023-02-23T02:18:46;85.80;;;39.63;;
59786;SDS011;45672;51.612;5.536;2023-02-23T02:24:15;87.03;;;40.50;;
59786;SDS011;45672;51.612;5.536;2023-02-23T02:26:54;87.45;;;41.13;;
59786;SDS011;45672;51.612;5.536;2023-02-23T02:37:46;75.32;;;34.97;;
59786;SDS011;45672;51.612;5.536;2023-02-23T02:40:27;84.65;;;36.80;;
59786;SDS011;45672;51.612;5.536;2023-02-23T02:45:50;87.47;;;38.60;;
59786;SDS011;45672;51.612;5.536;2023-02-23T02:48:22;90.80;;;39.58;;
59786;SDS011;45672;51.612;5.536;2023-02-23T02:51:07;89.07;;;39.83;;
59786;SDS011;45672;51.612;5.536;2023-02-23T02:54:00;91.07;;;41.00;;
59786;SDS011;45672;51.612;5.536;2023-02-23T02:56:33;87.40;;;40.40;;
59786;SDS011;45672;51.612;5.536;2023-02-23T02:59:04;94.05;;;40.25;;
59786;SDS011;45672;51.612;5.536;2023-02-23T03:01:52;87.95;;;39.58;;
59786;SDS011;45672;51.612;5.536;2023-02-23T03:04:36;91.07;;;40.90;;
59786;SDS011;45672;51.612;5.536;2023-02-23T03:07:28;87.05;;;39.00;;
59786;SDS011;45672;51.612;5.536;2023-02-23T03:10:41;88.57;;;38.72;;
59786;SDS011;45672;51.612;5.536;2023-02-23T03:19:56;82.10;;;37.92;;
59786;SDS011;45672;51.612;5.536;2023-02-23T03:22:54;87.72;;;40.58;;
59786;SDS011;45672;51.612;5.536;2023-02-23T03:25:55;90.50;;;42.28;;
59786;SDS011;45672;51.612;5.536;2023-02-23T03:31:45;89.28;;;39.13;;
59786;SDS011;45672;51.612;5.536;2023-02-23T03:34:59;94.07;;;39.90;;
59786;SDS011;45672;51.612;5.536;2023-02-23T03:40:38;90.50;;;39.55;;
59786;SDS011;45672;51.612;5.536;2023-02-23T03:43:24;93.20;;;41.60;;
59786;SDS011;45672;51.612;5.536;2023-02-23T03:46:14;89.32;;;39.97;;
59786;SDS011;45672;51.612;5.536;2023-02-23T03:49:01;89.25;;;41.05;;
59786;SDS011;45672;51.612;5.536;2023-02-23T03:51:49;92.70;;;40.40;;
59786;SDS011;45672;51.612;5.536;2023-02-23T03:54:55;99.13;;;41.28;;
59786;SDS011;45672;51.612;5.536;2023-02-23T03:57:41;93.38;;;40.47;;
59786;SDS011;45672;51.612;5.536;2023-02-23T04:00:30;96.60;;;42.45;;
59786;SDS011;45672;51.612;5.536;2023-02-23T04:03:19;94.85;;;41.25;;
59786;SDS011;45672;51.612;5.536;2023-02-23T04:06:05;95.82;;;40.60;;
59786;SDS011;45672;51.612;5.536;2023-02-23T04:08:55;85.55;;;40.53;;
59786;SDS011;45672;51.612;5.536;2023-02-23T04:14:47;94.07;;;40.83;;
59786;SDS011;45672;51.612;5.536;2023-02-23T04:17:16;93.07;;;41.90;;
59786;SDS011;45672;51.612;5.536;2023-02-23T04:19:52;98.57;;;41.17;;
59786;SDS011;45672;51.612;5.536;2023-02-23T04:22:18;99.25;;;42.58;;
59786;SDS011;45672;51.612;5.536;2023-02-23T04:24:44;96.88;;;42.60;;
59786;SDS011;45672;51.612;5.536;2023-02-23T04:27:12;96.55;;;42.53;;
59786;SDS011;45672;51.612;5.536;2023-02-23T04:29:38;94.47;;;42.08;;
59786;SDS011;45672;51.612;5.536;2023-02-23T04:32:04;99.03;;;43.72;;
59786;SDS011;45672;51.612;5.536;2023-02-23T04:34:30;98.97;;;42.20;;
59786;SDS011;45672;51.612;5.536;2023-02-23T04:36:55;97.40;;;41.40;;
59786;SDS011;45672;51.612;5.536;2023-02-23T04:39:20;94.57;;;41.85;;
59786;SDS011;45672;51.612;5.536;2023-02-23T04:41:45;97.78;;;42.03;;
59786;SDS011;45672;51.612;5.536;2023-02-23T04:44:14;100.57;;;42.60;;
59786;SDS011;45672;51.612;5.536;2023-02-23T04:46:41;91.18;;;41.70;;
59786;SDS011;45672;51.612;5.536;2023-02-23T04:49:06;88.07;;;41.35;;
59786;SDS011;45672;51.612;5.536;2023-02-23T04:51:32;92.40;;;40.28;;
59786;SDS011;45672;51.612;5.536;2023-02-23T04:53:58;89.32;;;39.78;;
59786;SDS011;45672;51.612;5.536;2023-02-23T04:56:23;92.25;;;39.97;;
59786;SDS011;45672;51.612;5.536;2023-02-23T04:58:49;89.90;;;37.78;;
59786;SDS011;45672;51.612;5.536;2023-02-23T05:01:15;85.32;;;38.10;;
59786;SDS011;45672;51.612;5.536;2023-02-23T05:03:40;99.32;;;39.97;;
59786;SDS011;45672;51.612;5.536;2023-02-23T05:06:05;85.97;;;40.40;;
59786;SDS011;45672;51.612;5.536;2023-02-23T05:08:31;83.75;;;38.67;;
59786;SDS011;45672;51.612;5.536;2023-02-23T05:10:56;86.53;;;37.80;;
59786;SDS011;45672;51.612;5.536;2023-02-23T05:13:21;82.25;;;37.30;;
59786;SDS011;45672;51.612;5.536;2023-02-23T05:15:47;83.80;;;37.65;;
59786;SDS011;45672;51.612;5.536;2023-02-23T05:18:13;80.07;;;37.03;;
59786;SDS011;45672;51.612;5.536;2023-02-23T05:20:40;82.65;;;37.40;;
59786;SDS011;45672;51.612;5.536;2023-02-23T05:23:06;80.97;;;37.00;;
59786;SDS011;45672;51.612;5.536;2023-02-23T05:25:32;81.07;;;36.92;;
59786;SDS011;45672;51.612;5.536;2023-02-23T05:27:57;85.70;;;37.25;;
59786;SDS011;45672;51.612;5.536;2023-02-23T05:30:23;84.30;;;37.72;;
59786;SDS011;45672;51.612;5.536;2023-02-23T05:32:48;77.60;;;35.95;;
59786;SDS011;45672;51.612;5.536;2023-02-23T05:35:15;82.68;;;35.75;;
59786;SDS011;45672;51.612;5.536;2023-02-23T05:37:40;86.40;;;37.03;;
59786;SDS011;45672;51.612;5.536;2023-02-23T05:40:06;84.72;;;36.83;;
59786;SDS011;45672;51.612;5.536;2023-02-23T05:42:33;86.43;;;36.95;;
59786;SDS011;45672;51.612;5.536;2023-02-23T05:44:58;88.47;;;37.90;;
59786;SDS011;45672;51.612;5.536;2023-02-23T05:47:23;83.63;;;38.00;;
59786;SDS011;45672;51.612;5.536;2023-02-23T05:49:49;85.07;;;37.47;;
59786;SDS011;45672;51.612;5.536;2023-02-23T05:52:14;81.60;;;37.63;;
59786;SDS011;45672;51.612;5.536;2023-02-23T05:54:39;83.78;;;37.70;;
59786;SDS011;45672;51.612;5.536;2023-02-23T05:57:05;84.13;;;37.53;;
59786;SDS011;45672;51.612;5.536;2023-02-23T05:59:30;89.15;;;37.75;;
59786;SDS011;45672;51.612;5.536;2023-02-23T06:01:56;76.90;;;36.63;;
59786;SDS011;45672;51.612;5.536;2023-02-23T06:04:21;86.47;;;37.08;;
59786;SDS011;45672;51.612;5.536;2023-02-23T06:06:47;88.88;;;37.55;;
59786;SDS011;45672;51.612;5.536;2023-02-23T06:09:12;86.22;;;38.13;;
59786;SDS011;45672;51.612;5.536;2023-02-23T06:11:38;91.07;;;39.03;;
59786;SDS011;45672;51.612;5.536;2023-02-23T06:14:06;88.43;;;38.95;;
59786;SDS011;45672;51.612;5.536;2023-02-23T06:16:34;86.95;;;39.38;;
59786;SDS011;45672;51.612;5.536;2023-02-23T06:18:59;85.65;;;37.95;;
59786;SDS011;45672;51.612;5.536;2023-02-23T06:21:24;95.95;;;40.00;;
59786;SDS011;45672;51.612;5.536;2023-02-23T06:23:49;94.70;;;42.08;;
59786;SDS011;45672;51.612;5.536;2023-02-23T06:26:15;98.82;;;43.70;;
59786;SDS011;45672;51.612;5.536;2023-02-23T06:28:40;93.28;;;41.80;;
59786;SDS011;45672;51.612;5.536;2023-02-23T06:31:05;93.65;;;40.58;;
59786;SDS011;45672;51.612;5.536;2023-02-23T06:33:31;85.95;;;39.63;;
59786;SDS011;45672;51.612;5.536;2023-02-23T06:35:56;90.72;;;39.95;;
59786;SDS011;45672;51.612;5.536;2023-02-23T06:38:21;86.78;;;39.20;;
59786;SDS011;45672;51.612;5.536;2023-02-23T06:40:47;90.68;;;38.80;;
59786;SDS011;45672;51.612;5.536;2023-02-23T06:43:13;89.95;;;38.28;;
59786;SDS011;45672;51.612;5.536;2023-02-23T06:45:38;81.95;;;38.03;;
59786;SDS011;45672;51.612;5.536;2023-02-23T06:48:04;87.03;;;38.10;;
59786;SDS011;45672;51.612;5.536;2023-02-23T06:50:30;87.68;;;37.50;;
59786;SDS011;45672;51.612;5.536;2023-02-23T06:52:55;88.75;;;38.78;;
59786;SDS011;45672;51.612;5.536;2023-02-23T06:55:21;84.60;;;36.67;;
59786;SDS011;45672;51.612;5.536;2023-02-23T06:57:48;89.78;;;37.28;;
59786;SDS011;45672;51.612;5.536;2023-02-23T07:00:15;83.70;;;37.55;;
59786;SDS011;45672;51.612;5.536;2023-02-23T07:02:41;80.78;;;36.60;;
59786;SDS011;45672;51.612;5.536;2023-02-23T07:05:08;85.65;;;35.78;;
59786;SDS011;45672;51.612;5.536;2023-02-23T07:07:34;83.88;;;36.50;;
59786;SDS011;45672;51.612;5.536;2023-02-23T07:10:00;79.22;;;36.55;;
59786;SDS011;45672;51.612;5.536;2023-02-23T07:12:26;84.35;;;36.95;;
59786;SDS011;45672;51.612;5.536;2023-02-23T07:14:51;85.25;;;37.38;;
59786;SDS011;45672;51.612;5.536;2023-02-23T07:17:16;83.90;;;35.88;;
59786;SDS011;45672;51.612;5.536;2023-02-23T07:19:42;88.95;;;38.40;;
59786;SDS011;45672;51.612;5.536;2023-02-23T07:22:07;87.13;;;37.58;;
59786;SDS011;45672;51.612;5.536;2023-02-23T07:24:33;80.95;;;35.88;;
59786;SDS011;45672;51.612;5.536;2023-02-23T07:26:58;87.95;;;37.35;;
59786;SDS011;45672;51.612;5.536;2023-02-23T07:29:23;88.28;;;36.78;;
59786;SDS011;45672;51.612;5.536;2023-02-23T07:31:49;85.57;;;36.58;;
59786;SDS011;45672;51.612;5.536;2023-02-23T07:34:14;85.55;;;37.38;;
59786;SDS011;45672;51.612;5.536;2023-02-23T07:36:40;92.90;;;37.55;;
59786;SDS011;45672;51.612;5.536;2023-02-23T07:39:05;89.35;;;39.03;;
59786;SDS011;45672;51.612;5.536;2023-02-23T07:41:31;86.35;;;37.53;;
59786;SDS011;45672;51.612;5.536;2023-02-23T07:43:57;88.70;;;36.72;;
59786;SDS011;45672;51.612;5.536;2023-02-23T07:46:23;91.28;;;37.20;;
59786;SDS011;45672;51.612;5.536;2023-02-23T07:48:48;93.32;;;39.38;;
59786;SDS011;45672;51.612;5.536;2023-02-23T07:51:14;89.07;;;36.90;;
59786;SDS011;45672;51.612;5.536;2023-02-23T07:53:41;83.75;;;37.47;;
59786;SDS011;45672;51.612;5.536;2023-02-23T07:56:07;83.63;;;36.70;;
59786;SDS011;45672;51.612;5.536;2023-02-23T07:58:38;98.57;;;44.30;;
59786;SDS011;45672;51.612;5.536;2023-02-23T08:01:08;90.95;;;39.03;;
59786;SDS011;45672;51.612;5.536;2023-02-23T08:03:34;82.53;;;35.83;;
59786;SDS011;45672;51.612;5.536;2023-02-23T08:05:59;92.13;;;38.75;;
59786;SDS011;45672;51.612;5.536;2023-02-23T08:08:24;91.63;;;39.05;;
59786;SDS011;45672;51.612;5.536;2023-02-23T08:10:58;84.65;;;37.97;;
59786;SDS011;45672;51.612;5.536;2023-02-23T08:13:27;91.43;;;37.78;;
59786;SDS011;45672;51.612;5.536;2023-02-23T08:15:53;88.43;;;37.45;;
59786;SDS011;45672;51.612;5.536;2023-02-23T08:18:19;88.13;;;37.85;;
59786;SDS011;45672;51.612;5.536;2023-02-23T08:20:44;86.93;;;38.15;;
59786;SDS011;45672;51.612;5.536;2023-02-23T08:23:09;80.90;;;37.58;;
59786;SDS011;45672;51.612;5.536;2023-02-23T08:25:35;88.20;;;36.90;;
59786;SDS011;45672;51.612;5.536;2023-02-23T08:28:00;82.07;;;36.92;;
59786;SDS011;45672;51.612;5.536;2023-02-23T08:30:28;77.22;;;35.42;;
59786;SDS011;45672;51.612;5.536;2023-02-23T08:32:54;87.80;;;38.00;;
59786;SDS011;45672;51.612;5.536;2023-02-23T08:35:19;82.72;;;36.00;;
59786;SDS011;45672;51.612;5.536;2023-02-23T08:37:45;82.45;;;35.30;;
59786;SDS011;45672;51.612;5.536;2023-02-23T08:40:11;75.47;;;33.47;;
59786;SDS011;45672;51.612;5.536;2023-02-23T08:42:39;80.72;;;34.60;;
59786;SDS011;45672;51.612;5.536;2023-02-23T08:45:05;78.65;;;34.15;;
59786;SDS011;45672;51.612;5.536;2023-02-23T08:47:31;74.53;;;33.00;;
59786;SDS011;45672;51.612;5.536;2023-02-23T08:49:58;79.32;;;34.17;;
59786;SDS011;45672;51.612;5.536;2023-02-23T08:52:24;71.13;;;34.00;;
59786;SDS011;45672;51.612;5.536;2023-02-23T08:54:49;72.07;;;33.35;;
59786;SDS011;45672;51.612;5.536;2023-02-23T08:57:15;73.97;;;32.40;;
59786;SDS011;45672;51.612;5.536;2023-02-23T08:59:41;73.43;;;32.53;;
59786;SDS011;45672;51.612;5.536;2023-02-23T09:02:09;75.43;;;33.67;;
59786;SDS011;45672;51.612;5.536;2023-02-23T09:04:37;74.65;;;31.30;;
59786;SDS011;45672;51.612;5.536;2023-02-23T09:07:03;71.95;;;33.42;;
59786;SDS011;45672;51.612;5.536;2023-02-23T09:09:29;70.93;;;32.50;;
59786;SDS011;45672;51.612;5.536;2023-02-23T09:11:54;72.50;;;32.50;;
59786;SDS011;45672;51.612;5.536;2023-02-23T09:14:20;77.90;;;34.47;;
59786;SDS011;45672;51.612;5.536;2023-02-23T09:16:45;72.20;;;31.52;;
59786;SDS011;45672;51.612;5.536;2023-02-23T09:19:11;69.93;;;32.22;;
59786;SDS011;45672;51.612;5.536;2023-02-23T09:21:37;77.22;;;35.17;;
59786;SDS011;45672;51.612;5.536;2023-02-23T09:24:03;67.72;;;32.17;;
59786;SDS011;45672;51.612;5.536;2023-02-23T09:26:30;64.47;;;30.50;;
59786;SDS011;45672;51.612;5.536;2023-02-23T09:28:57;66.18;;;31.40;;
59786;SDS011;45672;51.612;5.536;2023-02-23T09:31:24;64.15;;;29.92;;
59786;SDS011;45672;51.612;5.536;2023-02-23T09:33:49;59.45;;;28.58;;
59786;SDS011;45672;51.612;5.536;2023-02-23T09:36:20;61.35;;;30.38;;
59786;SDS011;45672;51.612;5.536;2023-02-23T09:38:48;61.33;;;29.65;;
59786;SDS011;45672;51.612;5.536;2023-02-23T09:43:55;66.03;;;32.15;;
59786;SDS011;45672;51.612;5.536;2023-02-23T09:46:33;72.65;;;32.97;;
59786;SDS011;45672;51.612;5.536;2023-02-23T09:49:10;64.55;;;31.85;;
59786;SDS011;45672;51.612;5.536;2023-02-23T09:51:43;58.38;;;30.65;;
59786;SDS011;45672;51.612;5.536;2023-02-23T09:54:17;66.05;;;32.60;;
59786;SDS011;45672;51.612;5.536;2023-02-23T09:56:48;64.07;;;33.58;;
59786;SDS011;45672;51.612;5.536;2023-02-23T09:59:16;64.47;;;33.00;;
59786;SDS011;45672;51.612;5.536;2023-02-23T10:06:47;65.45;;;31.75;;
59786;SDS011;45672;51.612;5.536;2023-02-23T10:12:18;70.15;;;32.92;;
59786;SDS011;45672;51.612;5.536;2023-02-23T10:15:19;66.40;;;33.00;;
59786;SDS011;45672;51.612;5.536;2023-02-23T10:18:11;67.05;;;31.60;;
59786;SDS011;45672;51.612;5.536;2023-02-23T10:23:12;74.25;;;33.45;;
59786;SDS011;45672;51.612;5.536;2023-02-23T10:25:44;88.10;;;41.70;;
59786;SDS011;45672;51.612;5.536;2023-02-23T10:28:13;83.40;;;39.13;;
59786;SDS011;45672;51.612;5.536;2023-02-23T10:30:41;77.65;;;35.55;;
59786;SDS011;45672;51.612;5.536;2023-02-23T10:35:47;75.28;;;34.15;;
59786;SDS011;45672;51.612;5.536;2023-02-23T10:38:16;99.05;;;46.33;;
59786;SDS011;45672;51.612;5.536;2023-02-23T10:40:44;80.45;;;36.20;;
59786;SDS011;45672;51.612;5.536;2023-02-23T10:43:15;79.13;;;37.83;;
59786;SDS011;45672;51.612;5.536;2023-02-23T10:45:44;97.15;;;42.95;;
59786;SDS011;45672;51.612;5.536;2023-02-23T10:48:26;92.45;;;42.15;;
59786;SDS011;45672;51.612;5.536;2023-02-23T10:50:56;75.82;;;35.42;;
59786;SDS011;45672;51.612;5.536;2023-02-23T10:53:30;85.28;;;39.42;;
59786;SDS011;45672;51.612;5.536;2023-02-23T10:58:40;74.22;;;33.95;;
59786;SDS011;45672;51.612;5.536;2023-02-23T11:01:10;71.28;;;32.88;;
59786;SDS011;45672;51.612;5.536;2023-02-23T11:03:38;69.32;;;33.42;;
59786;SDS011;45672;51.612;5.536;2023-02-23T11:08:52;75.28;;;34.20;;
59786;SDS011;45672;51.612;5.536;2023-02-23T11:11:19;69.78;;;33.65;;
59786;SDS011;45672;51.612;5.536;2023-02-23T11:13:50;65.25;;;32.65;;
59786;SDS011;45672;51.612;5.536;2023-02-23T11:16:23;74.28;;;32.75;;
59786;SDS011;45672;51.612;5.536;2023-02-23T11:18:53;72.55;;;34.35;;
59786;SDS011;45672;51.612;5.536;2023-02-23T11:21:22;65.82;;;32.55;;
59786;SDS011;45672;51.612;5.536;2023-02-23T11:23:52;68.75;;;33.30;;
59786;SDS011;45672;51.612;5.536;2023-02-23T11:26:21;66.60;;;32.60;;
59786;SDS011;45672;51.612;5.536;2023-02-23T11:28:54;66.32;;;32.92;;
59786;SDS011;45672;51.612;5.536;2023-02-23T11:31:25;69.18;;;34.85;;
59786;SDS011;45672;51.612;5.536;2023-02-23T11:33:54;68.13;;;31.73;;
59786;SDS011;45672;51.612;5.536;2023-02-23T11:38:46;66.72;;;33.55;;
59786;SDS011;45672;51.612;5.536;2023-02-23T11:41:19;66.25;;;33.47;;
59786;SDS011;45672;51.612;5.536;2023-02-23T11:43:49;72.47;;;34.75;;
59786;SDS011;45672;51.612;5.536;2023-02-23T11:46:17;65.80;;;32.63;;
59786;SDS011;45672;51.612;5.536;2023-02-23T11:48:51;61.05;;;32.13;;
59786;SDS011;45672;51.612;5.536;2023-02-23T11:51:29;64.60;;;32.40;;
59786;SDS011;45672;51.612;5.536;2023-02-23T11:53:57;59.92;;;31.70;;
59786;SDS011;45672;51.612;5.536;2023-02-23T11:56:24;58.70;;;31.13;;
59786;SDS011;45672;51.612;5.536;2023-02-23T11:58:52;58.75;;;30.88;;
59786;SDS011;45672;51.612;5.536;2023-02-23T12:01:22;60.50;;;30.75;;
59786;SDS011;45672;51.612;5.536;2023-02-23T12:03:59;52.83;;;29.17;;
59786;SDS011;45672;51.612;5.536;2023-02-23T12:06:45;58.47;;;29.63;;
59786;SDS011;45672;51.612;5.536;2023-02-23T12:09:14;56.90;;;29.02;;
59786;SDS011;45672;51.612;5.536;2023-02-23T12:11:49;51.80;;;27.85;;
59786;SDS011;45672;51.612;5.536;2023-02-23T12:14:21;54.17;;;27.27;;
59786;SDS011;45672;51.612;5.536;2023-02-23T12:17:02;47.65;;;26.70;;
59786;SDS011;45672;51.612;5.536;2023-02-23T12:19:46;55.25;;;28.27;;
59786;SDS011;45672;51.612;5.536;2023-02-23T12:22:21;53.03;;;29.92;;
59786;SDS011;45672;51.612;5.536;2023-02-23T12:30:02;54.88;;;29.83;;
59786;SDS011;45672;51.612;5.536;2023-02-23T12:37:36;50.88;;;27.48;;
59786;SDS011;45672;51.612;5.536;2023-02-23T12:40:21;50.47;;;26.45;;
59786;SDS011;45672;51.612;5.536;2023-02-23T12:45:21;43.00;;;23.58;;
59786;SDS011;45672;51.612;5.536;2023-02-23T12:47:53;41.53;;;22.23;;
59786;SDS011;45672;51.612;5.536;2023-02-23T12:58:48;38.00;;;21.23;;
59786;SDS011;45672;51.612;5.536;2023-02-23T13:01:28;39.67;;;22.45;;
59786;SDS011;45672;51.612;5.536;2023-02-23T13:09:48;29.30;;;19.13;;
59786;SDS011;45672;51.612;5.536;2023-02-23T13:20:42;25.05;;;15.52;;
59786;SDS011;45672;51.612;5.536;2023-02-23T13:26:17;17.90;;;11.70;;
59786;SDS011;45672;51.612;5.536;2023-02-23T13:31:43;18.67;;;10.88;;
59786;SDS011;45672;51.612;5.536;2023-02-23T13:34:10;16.75;;;11.82;;
59786;SDS011;45672;51.612;5.536;2023-02-23T13:36:41;17.50;;;12.18;;
59786;SDS011;45672;51.612;5.536;2023-02-23T13:39:27;20.05;;;13.60;;
59786;SDS011;45672;51.612;5.536;2023-02-23T13:47:36;16.42;;;12.10;;
59786;SDS011;45672;51.612;5.536;2023-02-23T13:50:14;16.23;;;11.25;;
59786;SDS011;45672;51.612;5.536;2023-02-23T13:52:48;15.75;;;11.10;;
59786;SDS011;45672;51.612;5.536;2023-02-23T13:57:52;16.98;;;10.77;;
59786;SDS011;45672;51.612;5.536;2023-02-23T14:00:21;16.77;;;10.80;;
59786;SDS011;45672;51.612;5.536;2023-02-23T14:02:48;16.25;;;11.15;;
59786;SDS011;45672;51.612;5.536;2023-02-23T14:05:18;16.65;;;11.57;;
59786;SDS011;45672;51.612;5.536;2023-02-23T14:07:59;17.30;;;12.30;;
59786;SDS011;45672;51.612;5.536;2023-02-23T14:10:27;14.77;;;10.82;;
59786;SDS011;45672;51.612;5.536;2023-02-23T14:18:00;18.15;;;11.52;;
59786;SDS011;45672;51.612;5.536;2023-02-23T14:20:42;16.60;;;11.85;;
59786;SDS011;45672;51.612;5.536;2023-02-23T14:23:31;21.92;;;13.68;;
59786;SDS011;45672;51.612;5.536;2023-02-23T14:26:17;22.10;;;13.77;;
59786;SDS011;45672;51.612;5.536;2023-02-23T14:34:44;19.65;;;12.45;;
59786;SDS011;45672;51.612;5.536;2023-02-23T14:37:15;20.20;;;12.73;;
59786;SDS011;45672;51.612;5.536;2023-02-23T14:39:42;22.65;;;12.88;;
59786;SDS011;45672;51.612;5.536;2023-02-23T14:42:08;24.35;;;13.05;;
59786;SDS011;45672;51.612;5.536;2023-02-23T14:44:54;19.52;;;12.00;;
59786;SDS011;45672;51.612;5.536;2023-02-23T14:47:21;18.38;;;11.15;;
59786;SDS011;45672;51.612;5.536;2023-02-23T14:49:58;17.15;;;10.48;;
59786;SDS011;45672;51.612;5.536;2023-02-23T14:52:26;19.85;;;11.43;;
59786;SDS011;45672;51.612;5.536;2023-02-23T14:55:05;19.80;;;12.35;;
59786;SDS011;45672;51.612;5.536;2023-02-23T14:57:39;17.20;;;10.77;;
59786;SDS011;45672;51.612;5.536;2023-02-23T15:00:11;19.45;;;11.20;;
59786;SDS011;45672;51.612;5.536;2023-02-23T15:02:37;19.15;;;11.15;;
59786;SDS011;45672;51.612;5.536;2023-02-23T15:05:15;18.95;;;11.02;;
59786;SDS011;45672;51.612;5.536;2023-02-23T15:07:40;19.90;;;11.63;;
59786;SDS011;45672;51.612;5.536;2023-02-23T15:10:07;17.35;;;11.20;;
59786;SDS011;45672;51.612;5.536;2023-02-23T15:12:41;19.90;;;11.93;;
59786;SDS011;45672;51.612;5.536;2023-02-23T15:15:16;18.95;;;10.52;;
59786;SDS011;45672;51.612;5.536;2023-02-23T15:17:43;17.92;;;11.05;;
59786;SDS011;45672;51.612;5.536;2023-02-23T15:20:13;19.95;;;11.07;;
59786;SDS011;45672;51.612;5.536;2023-02-23T15:22:41;15.70;;;10.10;;
59786;SDS011;45672;51.612;5.536;2023-02-23T15:25:13;14.63;;;9.43;;
59786;SDS011;45672;51.612;5.536;2023-02-23T15:27:41;12.80;;;7.65;;
59786;SDS011;45672;51.612;5.536;2023-02-23T15:33:00;13.75;;;7.32;;
59786;SDS011;45672;51.612;5.536;2023-02-23T15:35:40;13.50;;;7.88;;
59786;SDS011;45672;51.612;5.536;2023-02-23T15:38:13;16.70;;;8.02;;
59786;SDS011;45672;51.612;5.536;2023-02-23T15:40:44;16.83;;;8.73;;
59786;SDS011;45672;51.612;5.536;2023-02-23T15:43:10;14.15;;;8.80;;
59786;SDS011;45672;51.612;5.536;2023-02-23T15:45:39;13.00;;;8.68;;
59786;SDS011;45672;51.612;5.536;2023-02-23T15:48:14;14.63;;;8.65;;
59786;SDS011;45672;51.612;5.536;2023-02-23T15:50:51;14.75;;;8.77;;
59786;SDS011;45672;51.612;5.536;2023-02-23T15:53:23;13.20;;;8.32;;
59786;SDS011;45672;51.612;5.536;2023-02-23T15:55:52;16.98;;;9.38;;
59786;SDS011;45672;51.612;5.536;2023-02-23T15:58:20;16.77;;;9.80;;
59786;SDS011;45672;51.612;5.536;2023-02-23T16:00:55;13.90;;;8.85;;
59786;SDS011;45672;51.612;5.536;2023-02-23T16:03:33;15.55;;;8.90;;
59786;SDS011;45672;51.612;5.536;2023-02-23T16:06:02;18.98;;;10.23;;
59786;SDS011;45672;51.612;5.536;2023-02-23T16:08:30;18.33;;;10.88;;
59786;SDS011;45672;51.612;5.536;2023-02-23T16:13:24;16.25;;;9.93;;
59786;SDS011;45672;51.612;5.536;2023-02-23T16:15:51;18.98;;;9.82;;
59786;SDS011;45672;51.612;5.536;2023-02-23T16:18:18;17.70;;;9.50;;
59786;SDS011;45672;51.612;5.536;2023-02-23T16:20:52;16.60;;;9.65;;
59786;SDS011;45672;51.612;5.536;2023-02-23T16:23:26;17.42;;;10.05;;
59786;SDS011;45672;51.612;5.536;2023-02-23T16:25:57;14.43;;;9.35;;
59786;SDS011;45672;51.612;5.536;2023-02-23T16:28:26;30.52;;;15.50;;
59786;SDS011;45672;51.612;5.536;2023-02-23T16:30:56;28.25;;;15.98;;
59786;SDS011;45672;51.612;5.536;2023-02-23T16:33:24;27.73;;;16.80;;
59786;SDS011;45672;51.612;5.536;2023-02-23T16:36:32;18.40;;;9.95;;
59786;SDS011;45672;51.612;5.536;2023-02-23T16:41:17;15.32;;;9.38;;
59786;SDS011;45672;51.612;5.536;2023-02-23T16:43:46;18.52;;;9.90;;
59786;SDS011;45672;51.612;5.536;2023-02-23T16:46:13;19.50;;;10.05;;
59786;SDS011;45672;51.612;5.536;2023-02-23T16:48:40;16.67;;;9.68;;
59786;SDS011;45672;51.612;5.536;2023-02-23T16:51:12;17.67;;;9.75;;
59786;SDS011;45672;51.612;5.536;2023-02-23T16:53:38;16.83;;;9.80;;
59786;SDS011;45672;51.612;5.536;2023-02-23T16:56:04;18.27;;;9.65;;